Time;durP1;ratioP1;P1;durP2;ratioP2;P2;SDS_P1;SDS_P2;PMS_P1;PMS_P2;Temp;Humidity;BMP_temperature;BMP_pressure;BME280_temperature;BME280_humidity;BME280_pressure;Samples;Min_cycle;Max_cycle;Signal;HPM_P1;HPM_P2
2023/08/09 00:01:27;;;;;;;9.10;5.68;;;;;;;;;;7368642;19;20526;-73
2023/08/09 00:03:53;;;;;;;10.80;4.90;;;;;;;;;;7385873;19;20652;-72
2023/08/09 00:06:18;;;;;;;8.93;4.90;;;;;;;;;;7367000;19;20622;-72
2023/08/09 00:08:43;;;;;;;9.63;5.13;;;;;;;;;;7367787;19;20014;-72
2023/08/09 00:11:09;;;;;;;8.60;4.95;;;;;;;;;;7367295;19;20030;-73
2023/08/09 00:13:34;;;;;;;7.65;5.18;;;;;;;;;;7369456;19;20007;-73
2023/08/09 00:15:59;;;;;;;8.82;5.75;;;;;;;;;;7391750;19;20587;-73
2023/08/09 00:18:25;;;;;;;8.85;5.20;;;;;;;;;;7369481;19;20480;-73
2023/08/09 00:20:50;;;;;;;8.48;4.88;;;;;;;;;;7368243;19;20010;-73
2023/08/09 00:23:15;;;;;;;9.27;4.88;;;;;;;;;;7367567;19;20014;-73
2023/08/09 00:25:41;;;;;;;10.45;4.93;;;;;;;;;;7366495;19;20006;-73
2023/08/09 00:28:07;;;;;;;8.82;5.35;;;;;;;;;;7368303;19;20390;-74
2023/08/09 00:30:32;;;;;;;10.82;5.65;;;;;;;;;;7391103;19;20032;-73
2023/08/09 00:32:58;;;;;;;10.20;5.97;;;;;;;;;;7385150;19;20003;-73
2023/08/09 00:35:23;;;;;;;10.70;5.93;;;;;;;;;;7393511;19;20377;-72
2023/08/09 00:37:48;;;;;;;12.15;6.07;;;;;;;;;;7393262;19;20029;-72
2023/08/09 00:40:14;;;;;;;9.90;6.10;;;;;;;;;;7396885;19;19998;-74
2023/08/09 00:42:41;;;;;;;8.68;6.00;;;;;;;;;;7407521;19;20007;-74
2023/08/09 00:45:07;;;;;;;12.73;6.20;;;;;;;;;;7364758;19;20472;-74
2023/08/09 00:47:33;;;;;;;9.75;6.03;;;;;;;;;;7368151;19;20044;-73
2023/08/09 00:49:59;;;;;;;11.60;6.00;;;;;;;;;;7367032;19;20067;-73
2023/08/09 00:52:26;;;;;;;11.27;6.75;;;;;;;;;;7366821;19;20448;-73
2023/08/09 00:54:52;;;;;;;12.23;5.80;;;;;;;;;;7386546;19;20007;-68
2023/08/09 00:57:18;;;;;;;10.15;6.13;;;;;;;;;;7366021;19;20031;-72
2023/08/09 00:59:43;;;;;;;11.10;5.88;;;;;;;;;;7366544;19;20002;-73
2023/08/09 01:02:09;;;;;;;9.07;6.10;;;;;;;;;;7365971;19;20010;-72
2023/08/09 01:04:35;;;;;;;10.88;5.90;;;;;;;;;;7365803;19;20582;-73
2023/08/09 01:07:06;;;;;;;11.25;5.70;;;;;;;;;;7387863;19;19998;-73
2023/08/09 01:09:41;;;;;;;;;;;;;;;;;;7366024;19;20027;-73
2023/08/09 01:12:14;;;;;;;9.73;5.50;;;;;;;;;;7364368;19;19992;-73
2023/08/09 01:14:42;;;;;;;9.40;5.80;;;;;;;;;;7364060;19;20082;-73
2023/08/09 01:17:12;;;;;;;9.85;5.30;;;;;;;;;;7369623;19;20010;-72
2023/08/09 01:19:45;;;;;;;8.20;5.43;;;;;;;;;;7372910;19;20010;-73
2023/08/09 01:22:33;;;;;;;11.95;5.28;;;;;;;;;;7372702;19;20483;-72
2023/08/09 01:25:03;;;;;;;8.05;5.18;;;;;;;;;;7391625;19;20411;-71
2023/08/09 01:27:29;;;;;;;9.50;5.40;;;;;;;;;;7372939;19;20010;-72
2023/08/09 01:29:56;;;;;;;9.52;5.57;;;;;;;;;;7372209;19;20018;-73
2023/08/09 01:32:23;;;;;;;9.07;5.80;;;;;;;;;;7373088;19;20176;-73
2023/08/09 01:34:48;;;;;;;12.60;5.28;;;;;;;;;;7371594;19;20017;-72
2023/08/09 01:37:22;;;;;;;8.55;5.10;;;;;;;;;;7372764;19;20440;-73
2023/08/09 01:39:51;;;;;;;8.85;5.53;;;;;;;;;;7394671;19;20009;-74
2023/08/09 01:42:16;;;;;;;11.60;6.10;;;;;;;;;;7371084;19;20321;-73
2023/08/09 01:44:43;;;;;;;9.65;6.13;;;;;;;;;;7370042;19;20018;-73
2023/08/09 01:47:09;;;;;;;8.95;5.57;;;;;;;;;;7372373;19;20007;-73
2023/08/09 01:49:35;;;;;;;7.68;5.38;;;;;;;;;;7369990;19;20075;-73
2023/08/09 01:52:00;;;;;;;12.57;5.85;;;;;;;;;;7393231;19;20010;-74
2023/08/09 01:54:25;;;;;;;9.15;5.28;;;;;;;;;;7364941;19;20531;-72
2023/08/09 01:56:51;;;;;;;10.32;5.60;;;;;;;;;;7368007;19;20022;-72
2023/08/09 01:59:16;;;;;;;11.30;5.32;;;;;;;;;;7366587;19;20484;-73
2023/08/09 02:01:41;;;;;;;9.68;5.88;;;;;;;;;;7368462;19;20014;-73
2023/08/09 02:04:09;;;;;;;9.55;5.57;;;;;;;;;;7366117;19;20365;-73
2023/08/09 02:06:35;;;;;;;8.07;5.53;;;;;;;;;;7390596;19;19999;-73
2023/08/09 02:09:01;;;;;;;10.52;5.57;;;;;;;;;;7368342;19;20341;-72
2023/08/09 02:11:27;;;;;;;11.13;5.88;;;;;;;;;;7369354;19;20461;-72
2023/08/09 02:13:52;;;;;;;11.93;6.20;;;;;;;;;;7369452;19;20009;-72
2023/08/09 02:16:18;;;;;;;10.73;6.60;;;;;;;;;;7371885;19;19998;-72
2023/08/09 02:18:44;;;;;;;10.90;5.90;;;;;;;;;;7393779;19;20027;-71
2023/08/09 02:21:10;;;;;;;11.82;6.80;;;;;;;;;;7370900;19;20472;-72
2023/08/09 02:23:37;;;;;;;10.55;6.32;;;;;;;;;;7370532;19;20031;-72
2023/08/09 02:26:03;;;;;;;12.15;6.20;;;;;;;;;;7371059;19;20010;-72
2023/08/09 02:28:28;;;;;;;10.93;6.22;;;;;;;;;;7370972;19;20010;-72
2023/08/09 02:30:53;;;;;;;12.38;6.38;;;;;;;;;;7393744;19;20103;-72
2023/08/09 02:33:19;;;;;;;14.80;6.15;;;;;;;;;;7370217;19;20087;-72
2023/08/09 02:35:59;;;;;;;10.20;6.65;;;;;;;;;;7370527;19;20747;-72
2023/08/09 02:38:26;;;;;;;11.38;5.32;;;;;;;;;;7371036;19;20013;-72
2023/08/09 02:40:52;;;;;;;8.77;5.80;;;;;;;;;;7370252;19;20010;-73
2023/08/09 02:43:18;;;;;;;10.65;6.03;;;;;;;;;;7369707;19;20460;-74
2023/08/09 02:45:44;;;;;;;11.52;6.28;;;;;;;;;;7389730;19;20006;-73
2023/08/09 02:48:10;;;;;;;14.88;5.97;;;;;;;;;;7368961;19;20002;-73
2023/08/09 02:50:36;;;;;;;11.50;6.10;;;;;;;;;;7370572;19;20006;-72
2023/08/09 02:53:03;;;;;;;9.52;5.72;;;;;;;;;;7370457;19;20457;-73
2023/08/09 02:55:29;;;;;;;11.00;6.30;;;;;;;;;;7367395;19;20038;-72
2023/08/09 02:57:54;;;;;;;8.82;5.75;;;;;;;;;;7391456;19;19998;-72
2023/08/09 03:00:19;;;;;;;12.68;6.50;;;;;;;;;;7369276;19;20071;-72
2023/08/09 03:02:45;;;;;;;10.55;5.63;;;;;;;;;;7370243;19;20010;-72
2023/08/09 03:05:11;;;;;;;11.23;6.40;;;;;;;;;;7369887;19;20007;-72
2023/08/09 03:07:37;;;;;;;11.45;6.32;;;;;;;;;;7394626;19;20038;-72
2023/08/09 03:10:03;;;;;;;10.68;6.30;;;;;;;;;;7421020;19;19994;-72
2023/08/09 03:12:29;;;;;;;9.32;6.30;;;;;;;;;;7379049;19;20010;-72
2023/08/09 03:14:55;;;;;;;9.95;6.25;;;;;;;;;;7367271;19;20433;-72
2023/08/09 03:17:20;;;;;;;13.68;6.70;;;;;;;;;;7367316;19;20023;-73
2023/08/09 03:19:46;;;;;;;10.13;6.13;;;;;;;;;;7365520;19;20002;-73
2023/08/09 03:22:11;;;;;;;13.18;6.80;;;;;;;;;;7365212;19;20002;-74
2023/08/09 03:24:37;;;;;;;11.40;6.70;;;;;;;;;;7385640;19;20009;-73
2023/08/09 03:27:03;;;;;;;11.63;6.22;;;;;;;;;;7365065;19;20336;-72
2023/08/09 03:29:29;;;;;;;11.95;5.90;;;;;;;;;;7366014;19;20010;-73
2023/08/09 03:31:54;;;;;;;10.05;6.13;;;;;;;;;;7366471;19;20057;-72
2023/08/09 03:34:19;;;;;;;10.40;6.63;;;;;;;;;;7363539;19;20018;-73
2023/08/09 03:36:45;;;;;;;11.65;6.38;;;;;;;;;;7387124;19;20014;-73
2023/08/09 03:39:11;;;;;;;11.82;6.00;;;;;;;;;;7366278;19;20108;-74
2023/08/09 03:41:36;;;;;;;8.85;5.68;;;;;;;;;;7368653;19;20007;-74
2023/08/09 03:44:02;;;;;;;8.35;6.00;;;;;;;;;;7366699;19;20035;-74
2023/08/09 03:46:28;;;;;;;10.25;5.18;;;;;;;;;;7367166;19;20010;-74
2023/08/09 03:48:53;;;;;;;11.63;5.78;;;;;;;;;;7390997;19;20003;-74
2023/08/09 03:51:19;;;;;;;10.02;5.38;;;;;;;;;;7367427;19;20010;-74
2023/08/09 03:53:44;;;;;;;8.43;5.03;;;;;;;;;;7367559;19;20009;-73
2023/08/09 03:56:10;;;;;;;6.50;4.57;;;;;;;;;;7369537;19;20038;-73
2023/08/09 03:58:36;;;;;;;7.47;4.65;;;;;;;;;;7369651;19;20356;-74
2023/08/09 04:01:02;;;;;;;10.10;5.10;;;;;;;;;;7388892;19;20029;-74
2023/08/09 04:03:27;;;;;;;7.20;4.05;;;;;;;;;;7365730;19;20046;-74
2023/08/09 04:05:53;;;;;;;8.32;4.30;;;;;;;;;;7363836;19;20105;-74
2023/08/09 04:08:21;;;;;;;8.50;4.45;;;;;;;;;;7365971;19;20102;-74
2023/08/09 04:10:46;;;;;;;7.35;3.92;;;;;;;;;;7365351;19;20003;-74
2023/08/09 04:13:12;;;;;;;7.85;4.40;;;;;;;;;;7367989;19;20103;-73
2023/08/09 04:15:37;;;;;;;9.68;4.50;;;;;;;;;;7388303;19;20006;-74
2023/08/09 04:18:03;;;;;;;12.95;4.28;;;;;;;;;;7366247;19;20566;-74
2023/08/09 04:20:28;;;;;;;12.88;4.32;;;;;;;;;;7377604;19;20034;-73
2023/08/09 04:22:54;;;;;;;11.20;4.40;;;;;;;;;;7403361;19;20036;-73
2023/08/09 04:25:19;;;;;;;8.43;4.07;;;;;;;;;;7390301;19;20010;-73
2023/08/09 04:27:45;;;;;;;7.30;3.80;;;;;;;;;;7394444;19;20023;-73
2023/08/09 04:30:12;;;;;;;8.23;4.25;;;;;;;;;;7369025;19;20093;-73
2023/08/09 04:32:38;;;;;;;6.53;4.03;;;;;;;;;;7368132;19;20014;-74
2023/08/09 04:35:04;;;;;;;6.45;3.63;;;;;;;;;;7366518;19;20040;-74
2023/08/09 04:37:30;;;;;;;6.35;3.85;;;;;;;;;;7367193;19;20010;-74
2023/08/09 04:39:55;;;;;;;7.07;3.72;;;;;;;;;;7385979;19;20002;-74
2023/08/09 04:42:21;;;;;;;6.20;3.35;;;;;;;;;;7363454;19;20039;-73
2023/08/09 04:44:47;;;;;;;8.20;3.42;;;;;;;;;;7362729;19;20030;-73
2023/08/09 04:47:12;;;;;;;9.52;3.63;;;;;;;;;;7363766;19;20405;-74
2023/08/09 04:49:37;;;;;;;5.35;3.22;;;;;;;;;;7364768;19;20010;-74
2023/08/09 04:52:03;;;;;;;7.18;3.78;;;;;;;;;;7393447;19;20103;-74
2023/08/09 04:54:29;;;;;;;5.60;3.47;;;;;;;;;;7372977;19;20027;-74
2023/08/09 04:56:54;;;;;;;5.30;3.10;;;;;;;;;;7372697;19;20103;-73
2023/08/09 04:59:19;;;;;;;6.13;3.40;;;;;;;;;;7374473;19;20392;-72
2023/08/09 05:01:45;;;;;;;5.88;3.33;;;;;;;;;;7375000;19;20023;-67
2023/08/09 05:04:10;;;;;;;6.88;3.40;;;;;;;;;;7371947;19;20006;-74
2023/08/09 05:06:35;;;;;;;5.72;3.30;;;;;;;;;;7393060;19;19998;-74
2023/08/09 05:09:01;;;;;;;7.10;3.60;;;;;;;;;;7371262;19;20006;-75
2023/08/09 05:11:27;;;;;;;4.88;3.15;;;;;;;;;;7372019;19;20010;-74
2023/08/09 05:13:52;;;;;;;7.35;3.38;;;;;;;;;;7371294;19;20006;-74
2023/08/09 05:16:24;;;;;;;7.32;3.50;;;;;;;;;;7371844;19;19998;-74
2023/08/09 05:18:49;;;;;;;6.50;2.97;;;;;;;;;;7394014;19;20007;-75
2023/08/09 05:21:14;;;;;;;10.50;3.50;;;;;;;;;;7373412;19;20007;-74
2023/08/09 05:23:40;;;;;;;6.22;3.28;;;;;;;;;;7372574;19;20007;-75
2023/08/09 05:26:05;;;;;;;8.38;3.05;;;;;;;;;;7373214;19;20064;-75
2023/08/09 05:28:30;;;;;;;7.05;3.30;;;;;;;;;;7362350;19;20010;-75
2023/08/09 05:30:55;;;;;;;5.38;2.83;;;;;;;;;;7386775;19;20040;-75
2023/08/09 05:33:21;;;;;;;5.47;3.30;;;;;;;;;;7373149;19;20074;-75
2023/08/09 05:35:46;;;;;;;5.57;2.90;;;;;;;;;;7371825;19;20014;-75
2023/08/09 05:38:11;;;;;;;7.20;3.30;;;;;;;;;;7373939;19;20003;-75
2023/08/09 05:40:37;;;;;;;8.50;3.90;;;;;;;;;;7372927;19;20007;-75
2023/08/09 05:43:02;;;;;;;5.72;2.97;;;;;;;;;;7395595;19;20690;-75
2023/08/09 05:45:27;;;;;;;10.00;3.15;;;;;;;;;;7369925;19;20615;-75
2023/08/09 05:47:53;;;;;;;8.05;3.28;;;;;;;;;;7373137;19;20010;-75
2023/08/09 05:50:19;;;;;;;6.93;3.47;;;;;;;;;;7373011;19;20027;-75
2023/08/09 05:52:44;;;;;;;8.93;3.03;;;;;;;;;;7373320;19;20013;-75
2023/08/09 05:55:09;;;;;;;6.72;2.80;;;;;;;;;;7370419;19;20002;-75
2023/08/09 05:57:36;;;;;;;6.63;3.10;;;;;;;;;;7395763;19;20021;-75
2023/08/09 06:00:06;;;;;;;7.10;3.33;;;;;;;;;;7373347;19;20596;-74
2023/08/09 06:02:34;;;;;;;6.93;2.83;;;;;;;;;;7370584;19;20006;-74
2023/08/09 06:05:00;;;;;;;5.80;3.15;;;;;;;;;;7369289;19;20010;-75
2023/08/09 06:07:26;;;;;;;6.05;2.92;;;;;;;;;;7372834;19;20849;-75
2023/08/09 06:09:51;;;;;;;6.38;2.97;;;;;;;;;;7394190;19;20010;-74
2023/08/09 06:12:16;;;;;;;5.63;2.88;;;;;;;;;;7373264;19;20018;-74
2023/08/09 06:14:42;;;;;;;7.35;3.05;;;;;;;;;;7370477;19;20473;-74
2023/08/09 06:17:07;;;;;;;6.13;2.60;;;;;;;;;;7373515;19;20085;-74
2023/08/09 06:19:33;;;;;;;9.05;2.70;;;;;;;;;;7372484;19;20010;-71
2023/08/09 06:21:58;;;;;;;5.93;2.95;;;;;;;;;;7393363;19;20444;-74
2023/08/09 06:24:24;;;;;;;8.15;2.92;;;;;;;;;;7369017;19;20026;-74
2023/08/09 06:26:49;;;;;;;5.93;2.53;;;;;;;;;;7371215;19;20031;-75
2023/08/09 06:29:15;;;;;;;4.65;2.63;;;;;;;;;;7372597;19;20090;-75
2023/08/09 06:31:41;;;;;;;6.00;2.58;;;;;;;;;;7375314;19;20019;-75
2023/08/09 06:34:08;;;;;;;8.85;2.60;;;;;;;;;;7370993;19;20010;-75
2023/08/09 06:36:34;;;;;;;8.10;3.47;;;;;;;;;;7393281;19;20041;-74
2023/08/09 06:38:59;;;;;;;5.13;3.35;;;;;;;;;;7370756;19;20014;-73
2023/08/09 06:41:24;;;;;;;5.90;2.92;;;;;;;;;;7371368;19;20021;-74
2023/08/09 06:43:50;;;;;;;7.15;2.70;;;;;;;;;;7369116;19;20010;-74
2023/08/09 06:46:15;;;;;;;5.82;2.80;;;;;;;;;;7369050;19;20014;-72
2023/08/09 06:48:40;;;;;;;5.60;2.78;;;;;;;;;;7392245;19;20023;-73
2023/08/09 06:51:06;;;;;;;6.68;3.08;;;;;;;;;;7371168;19;20007;-75
2023/08/09 06:53:31;;;;;;;4.72;2.63;;;;;;;;;;7369602;19;20108;-68
2023/08/09 06:56:06;;;;;;;5.75;2.55;;;;;;;;;;7371497;19;20010;-74
2023/08/09 06:58:31;;;;;;;6.40;2.80;;;;;;;;;;7368786;19;20464;-75
2023/08/09 07:00:56;;;;;;;5.30;2.65;;;;;;;;;;7392684;19;20014;-74
2023/08/09 07:03:22;;;;;;;5.85;2.70;;;;;;;;;;7371015;19;20013;-74
2023/08/09 07:05:47;;;;;;;4.13;2.63;;;;;;;;;;7368751;19;20036;-74
2023/08/09 07:08:13;;;;;;;7.13;2.83;;;;;;;;;;7371642;19;20010;-74
2023/08/09 07:10:38;;;;;;;4.57;2.60;;;;;;;;;;7371536;19;20070;-73
2023/08/09 07:13:04;;;;;;;6.68;2.38;;;;;;;;;;7386330;19;20024;-73
2023/08/09 07:15:29;;;;;;;8.00;2.47;;;;;;;;;;7378772;19;20021;-74
2023/08/09 07:17:54;;;;;;;4.57;2.50;;;;;;;;;;7370978;19;20010;-74
2023/08/09 07:20:20;;;;;;;4.03;2.60;;;;;;;;;;7370502;19;20014;-73
2023/08/09 07:22:46;;;;;;;4.47;2.30;;;;;;;;;;7370135;19;20006;-73
2023/08/09 07:25:16;;;;;;;4.97;2.40;;;;;;;;;;7367753;19;20006;-74
2023/08/09 07:27:47;;;;;;;3.92;2.63;;;;;;;;;;7391316;19;20490;-74
2023/08/09 07:30:15;;;;;;;4.15;2.58;;;;;;;;;;7369368;19;20014;-74
2023/08/09 07:32:41;;;;;;;5.72;2.80;;;;;;;;;;7369636;19;20022;-74
2023/08/09 07:35:08;;;;;;;5.50;2.60;;;;;;;;;;7368388;19;19999;-73
2023/08/09 07:37:35;;;;;;;5.22;2.67;;;;;;;;;;7370278;19;20528;-73
2023/08/09 07:40:00;;;;;;;6.88;2.92;;;;;;;;;;7392319;19;20059;-73
2023/08/09 07:42:25;;;;;;;8.85;3.00;;;;;;;;;;7367922;19;20015;-73
2023/08/09 07:44:51;;;;;;;6.78;2.85;;;;;;;;;;7368223;19;20106;-73
2023/08/09 07:47:17;;;;;;;5.35;2.70;;;;;;;;;;7369895;19;20035;-74
2023/08/09 07:49:42;;;;;;;5.60;2.83;;;;;;;;;;7369844;19;20002;-74
2023/08/09 07:52:07;;;;;;;5.45;2.83;;;;;;;;;;7368692;19;20015;-74
2023/08/09 07:54:33;;;;;;;5.22;3.10;;;;;;;;;;7389462;19;20007;-73
2023/08/09 07:56:58;;;;;;;5.70;2.92;;;;;;;;;;7369471;19;20097;-73
2023/08/09 07:59:23;;;;;;;8.70;3.00;;;;;;;;;;7369869;19;20018;-73
2023/08/09 08:01:48;;;;;;;7.40;2.92;;;;;;;;;;7369882;19;19999;-73
2023/08/09 08:04:14;;;;;;;9.38;3.10;;;;;;;;;;7368365;19;20469;-73
2023/08/09 08:06:39;;;;;;;7.53;3.10;;;;;;;;;;7392528;19;20002;-73
2023/08/09 08:09:05;;;;;;;5.32;2.88;;;;;;;;;;7373300;19;20021;-73
2023/08/09 08:11:30;;;;;;;5.70;3.20;;;;;;;;;;7371457;19;20017;-73
2023/08/09 08:13:57;;;;;;;5.13;2.70;;;;;;;;;;7369145;19;20010;-74
2023/08/09 08:16:22;;;;;;;4.40;2.80;;;;;;;;;;7391419;19;20006;-71
2023/08/09 08:18:47;;;;;;;5.32;2.58;;;;;;;;;;7422033;19;20005;-72
2023/08/09 08:21:13;;;;;;;6.25;2.50;;;;;;;;;;7394296;19;20094;-71
2023/08/09 08:23:38;;;;;;;4.03;2.15;;;;;;;;;;7375207;19;20002;-73
2023/08/09 08:26:05;;;;;;;4.32;2.30;;;;;;;;;;7366882;19;20010;-72
2023/08/09 08:28:30;;;;;;;5.70;2.70;;;;;;;;;;7369659;19;20014;-72
2023/08/09 08:30:55;;;;;;;5.10;2.25;;;;;;;;;;7391755;19;20003;-72
2023/08/09 08:33:21;;;;;;;5.43;2.10;;;;;;;;;;7367974;19;20035;-73
2023/08/09 08:35:48;;;;;;;5.00;2.40;;;;;;;;;;7368314;19;20055;-73
2023/08/09 08:38:15;;;;;;;6.10;2.33;;;;;;;;;;7368569;19;20007;-72
2023/08/09 08:40:40;;;;;;;4.63;2.28;;;;;;;;;;7367581;19;20062;-73
2023/08/09 08:43:08;;;;;;;3.78;2.40;;;;;;;;;;7367753;19;20031;-74
2023/08/09 08:45:36;;;;;;;6.60;2.72;;;;;;;;;;7388816;19;20026;-73
2023/08/09 08:48:03;;;;;;;4.82;2.30;;;;;;;;;;7366055;19;20528;-73
2023/08/09 08:50:31;;;;;;;6.03;2.70;;;;;;;;;;7368230;19;20459;-73
2023/08/09 08:52:57;;;;;;;5.47;2.70;;;;;;;;;;7368252;19;20414;-73
2023/08/09 08:55:23;;;;;;;4.28;2.63;;;;;;;;;;7365984;19;20006;-73
2023/08/09 08:57:49;;;;;;;6.10;2.50;;;;;;;;;;7387975;19;20544;-73
2023/08/09 09:00:16;;;;;;;4.75;1.77;;;;;;;;;;7367827;19;20014;-74
2023/08/09 09:02:43;;;;;;;5.72;2.35;;;;;;;;;;7366686;19;20010;-72
2023/08/09 09:05:10;;;;;;;5.70;1.40;;;;;;;;;;7365248;19;20026;-72
2023/08/09 09:07:36;;;;;;;4.68;1.70;;;;;;;;;;7367442;19;20455;-73
2023/08/09 09:10:09;;;;;;;5.05;1.75;;;;;;;;;;7388940;19;20003;-72
2023/08/09 09:12:34;;;;;;;6.57;1.90;;;;;;;;;;7367985;19;20460;-72
2023/08/09 09:15:01;;;;;;;4.18;2.38;;;;;;;;;;7364079;19;20013;-72
2023/08/09 09:17:26;;;;;;;5.03;2.10;;;;;;;;;;7365631;19;20041;-72
2023/08/09 09:19:52;;;;;;;5.00;1.80;;;;;;;;;;7367429;19;20571;-71
2023/08/09 09:22:34;;;;;;;2.95;1.70;;;;;;;;;;7366947;19;19998;-73
2023/08/09 09:24:59;;;;;;;6.43;2.20;;;;;;;;;;7386944;19;20014;-72
2023/08/09 09:27:28;;;;;;;9.35;2.40;;;;;;;;;;7367261;19;20011;-72
2023/08/09 09:29:54;;;;;;;6.68;2.13;;;;;;;;;;7366158;19;20024;-72
2023/08/09 09:32:20;;;;;;;3.97;1.70;;;;;;;;;;7365195;19;20010;-72
2023/08/09 09:34:48;;;;;;;3.92;1.50;;;;;;;;;;7364490;19;20063;-72
2023/08/09 09:37:22;;;;;;;2.42;1.60;;;;;;;;;;7365952;19;20002;-73
2023/08/09 09:39:49;;;;;;;2.33;1.50;;;;;;;;;;7394766;19;20058;-73
2023/08/09 09:42:18;;;;;;;4.15;1.63;;;;;;;;;;7372546;19;20009;-72
2023/08/09 09:44:44;;;;;;;2.42;1.63;;;;;;;;;;7372749;19;20468;-73
2023/08/09 09:47:10;;;;;;;4.63;1.60;;;;;;;;;;7373454;19;20006;-73
2023/08/09 09:49:36;;;;;;;3.10;1.75;;;;;;;;;;7374274;19;20714;-72
2023/08/09 09:52:05;;;;;;;2.58;1.45;;;;;;;;;;7394944;19;20017;-72
2023/08/09 09:54:33;;;;;;;3.83;1.48;;;;;;;;;;7371629;19;20697;-73
2023/08/09 09:56:59;;;;;;;3.45;1.50;;;;;;;;;;7372935;19;20011;-72
2023/08/09 09:59:24;;;;;;;4.70;1.50;;;;;;;;;;7373141;19;20061;-73
2023/08/09 10:01:51;;;;;;;3.13;1.40;;;;;;;;;;7372199;19;20010;-72
2023/08/09 10:04:19;;;;;;;2.38;1.35;;;;;;;;;;7371248;19;20010;-73
2023/08/09 10:06:47;;;;;;;3.42;1.50;;;;;;;;;;7389581;19;20017;-73
2023/08/09 10:09:13;;;;;;;4.75;1.60;;;;;;;;;;7369391;19;20372;-73
2023/08/09 10:11:42;;;;;;;3.08;1.70;;;;;;;;;;7369965;19;20010;-72
2023/08/09 10:14:10;;;;;;;3.05;1.70;;;;;;;;;;7368694;19;20099;-72
2023/08/09 10:16:36;;;;;;;2.67;1.80;;;;;;;;;;7370445;19;20640;-72
2023/08/09 10:19:08;;;;;;;2.53;1.70;;;;;;;;;;7392258;19;20003;-72
2023/08/09 10:21:34;;;;;;;2.33;1.58;;;;;;;;;;7371729;19;20377;-72
2023/08/09 10:23:59;;;;;;;3.42;1.52;;;;;;;;;;7370317;19;20035;-72
2023/08/09 10:26:29;;;;;;;2.75;1.50;;;;;;;;;;7371649;19;20011;-72
2023/08/09 10:29:01;;;;;;;3.57;1.73;;;;;;;;;;7371349;19;20010;-72
2023/08/09 10:31:47;;;;;;;2.55;1.65;;;;;;;;;;7371998;19;20014;-72
2023/08/09 10:34:13;;;;;;;2.97;1.90;;;;;;;;;;7370192;19;20006;-72
2023/08/09 10:36:38;;;;;;;3.33;1.70;;;;;;;;;;7393460;19;20002;-72
2023/08/09 10:39:20;;;;;;;4.40;1.80;;;;;;;;;;7371877;19;20018;-71
2023/08/09 10:42:11;;;;;;;2.92;1.88;;;;;;;;;;7370998;19;20010;-72
2023/08/09 10:44:36;;;;;;;;;;;;;;;;;;7370131;19;20559;-72
2023/08/09 10:47:08;;;;;;;5.37;1.70;;;;;;;;;;7370855;19;19931;-72
2023/08/09 10:49:49;;;;;;;2.78;1.73;;;;;;;;;;7370342;19;20042;-74
2023/08/09 10:52:15;;;;;;;;;;;;;;;;;;7372017;19;20010;-73
2023/08/09 10:54:41;;;;;;;3.08;1.60;;;;;;;;;;7390895;19;19918;-72
2023/08/09 10:57:11;;;;;;;5.47;1.70;;;;;;;;;;7370869;19;20017;-72
2023/08/09 10:59:46;;;;;;;2.40;1.70;;;;;;;;;;7372213;19;20006;-72
2023/08/09 11:02:15;;;;;;;3.08;1.52;;;;;;;;;;7366626;19;20164;-73
2023/08/09 11:04:43;;;;;;;3.70;1.63;;;;;;;;;;7369286;19;20007;-72
2023/08/09 11:07:18;;;;;;;3.63;1.58;;;;;;;;;;7369503;19;20561;-73
2023/08/09 11:09:44;;;;;;;4.22;1.63;;;;;;;;;;7392775;19;20003;-73
2023/08/09 11:12:10;;;;;;;4.30;1.80;;;;;;;;;;7369498;19;20035;-73
2023/08/09 11:14:36;;;;;;;4.38;1.70;;;;;;;;;;7369317;19;20072;-73
2023/08/09 11:17:01;;;;;;;4.47;1.83;;;;;;;;;;7370862;19;20010;-73
2023/08/09 11:19:27;;;;;;;2.42;1.60;;;;;;;;;;7370997;19;20010;-73
2023/08/09 11:21:54;;;;;;;2.88;1.67;;;;;;;;;;7391764;19;20011;-72
2023/08/09 11:24:24;;;;;;;3.20;1.60;;;;;;;;;;7369891;19;20348;-72
2023/08/09 11:26:53;;;;;;;4.10;1.70;;;;;;;;;;7369973;19;20720;-73
2023/08/09 11:29:20;;;;;;;4.10;1.75;;;;;;;;;;7370977;19;20010;-73
2023/08/09 11:31:48;;;;;;;4.20;1.65;;;;;;;;;;7369132;19;20027;-73
2023/08/09 11:34:15;;;;;;;4.53;1.70;;;;;;;;;;7369060;19;20074;-73
2023/08/09 11:36:45;;;;;;;17.77;3.35;;;;;;;;;;7391299;19;20292;-73
2023/08/09 11:39:13;;;;;;;8.95;1.70;;;;;;;;;;7369883;19;20031;-73
2023/08/09 11:41:53;;;;;;;13.25;2.10;;;;;;;;;;7369408;19;20025;-74
2023/08/09 11:44:26;;;;;;;4.00;1.98;;;;;;;;;;7367382;19;20011;-73
2023/08/09 11:46:53;;;;;;;7.40;1.60;;;;;;;;;;7369816;19;20015;-72
2023/08/09 11:49:24;;;;;;;10.00;1.90;;;;;;;;;;7369663;19;20007;-73
2023/08/09 11:51:50;;;;;;;8.38;1.60;;;;;;;;;;7391249;19;20543;-72
2023/08/09 11:54:15;;;;;;;8.95;1.95;;;;;;;;;;7365993;19;20150;-73
2023/08/09 11:56:41;;;;;;;3.90;1.55;;;;;;;;;;7369415;19;20008;-72
2023/08/09 11:59:07;;;;;;;3.38;1.40;;;;;;;;;;7369222;19;20003;-73
2023/08/09 12:01:39;;;;;;;6.47;1.30;;;;;;;;;;7366820;19;20624;-73
2023/08/09 12:04:07;;;;;;;2.60;1.23;;;;;;;;;;7377822;19;20014;-73
2023/08/09 12:06:36;;;;;;;1.65;1.23;;;;;;;;;;7388884;19;20024;-71
2023/08/09 12:09:36;;;;;;;6.03;1.67;;;;;;;;;;7369271;19;20383;-73
2023/08/09 12:12:18;;;;;;;2.90;1.40;;;;;;;;;;7394655;19;20002;-71
2023/08/09 12:14:53;;;;;;;2.90;1.15;;;;;;;;;;7399341;19;20003;-73
2023/08/09 12:17:28;;;;;;;2.10;1.30;;;;;;;;;;7389760;19;20035;-71
2023/08/09 12:20:00;;;;;;;2.38;1.40;;;;;;;;;;7372398;19;20013;-72
2023/08/09 12:22:27;;;;;;;1.92;1.35;;;;;;;;;;7369503;19;20045;-73
2023/08/09 12:24:53;;;;;;;3.35;1.40;;;;;;;;;;7387468;19;20006;-73
2023/08/09 12:27:21;;;;;;;2.22;1.67;;;;;;;;;;7367699;19;20220;-74
2023/08/09 12:29:47;;;;;;;5.32;1.48;;;;;;;;;;7367575;19;19994;-74
2023/08/09 12:32:12;;;;;;;3.97;1.65;;;;;;;;;;7368158;19;20406;-73
2023/08/09 12:34:38;;;;;;;3.13;1.88;;;;;;;;;;7366379;19;20030;-74
2023/08/09 12:37:04;;;;;;;5.63;1.55;;;;;;;;;;7387558;19;20376;-73
2023/08/09 12:39:30;;;;;;;2.80;1.27;;;;;;;;;;7376035;19;20094;-74
2023/08/09 12:41:56;;;;;;;1.98;1.30;;;;;;;;;;7365314;19;20060;-73
2023/08/09 12:44:21;;;;;;;1.92;1.23;;;;;;;;;;7364434;19;19998;-73
2023/08/09 12:46:46;;;;;;;2.42;1.50;;;;;;;;;;7363270;19;19998;-73
2023/08/09 12:49:11;;;;;;;2.47;1.38;;;;;;;;;;7368334;19;20005;-73
2023/08/09 12:51:38;;;;;;;3.28;1.33;;;;;;;;;;7389514;19;20009;-73
2023/08/09 12:54:04;;;;;;;2.03;1.40;;;;;;;;;;7366182;19;20026;-72
2023/08/09 12:56:29;;;;;;;2.95;1.50;;;;;;;;;;7366125;19;20014;-73
2023/08/09 12:58:55;;;;;;;3.67;1.75;;;;;;;;;;7368212;19;20353;-72
2023/08/09 13:01:20;;;;;;;2.85;1.70;;;;;;;;;;7364784;19;20033;-73
2023/08/09 13:03:47;;;;;;;2.72;1.30;;;;;;;;;;7388023;19;20002;-74
2023/08/09 13:06:17;;;;;;;1.75;1.23;;;;;;;;;;7365371;19;20003;-73
2023/08/09 13:08:43;;;;;;;3.17;1.33;;;;;;;;;;7368437;19;20018;-72
2023/08/09 13:11:09;;;;;;;5.47;1.50;;;;;;;;;;7367719;19;20011;-73
2023/08/09 13:13:36;;;;;;;4.72;1.50;;;;;;;;;;7374121;19;20003;-73
2023/08/09 13:16:03;;;;;;;6.70;1.50;;;;;;;;;;7397133;19;20351;-73
2023/08/09 13:18:28;;;;;;;9.68;2.15;;;;;;;;;;7362597;19;20057;-73
2023/08/09 13:20:53;;;;;;;12.93;2.30;;;;;;;;;;7375101;19;20421;-73
2023/08/09 13:23:19;;;;;;;4.63;1.95;;;;;;;;;;7374214;19;20101;-73
2023/08/09 13:25:44;;;;;;;5.38;1.83;;;;;;;;;;7372318;19;20012;-73
2023/08/09 13:28:09;;;;;;;4.22;1.50;;;;;;;;;;7374403;19;20017;-73
2023/08/09 13:30:35;;;;;;;4.70;1.38;;;;;;;;;;7396199;19;20002;-73
2023/08/09 13:33:01;;;;;;;3.38;1.63;;;;;;;;;;7370836;19;20006;-73
2023/08/09 13:35:26;;;;;;;5.93;1.67;;;;;;;;;;7372433;19;20011;-73
2023/08/09 13:37:52;;;;;;;5.25;1.80;;;;;;;;;;7375112;19;20010;-73
2023/08/09 13:40:17;;;;;;;2.40;1.50;;;;;;;;;;7372005;19;20003;-74
2023/08/09 13:42:43;;;;;;;1.65;1.40;;;;;;;;;;7392435;19;19997;-74
2023/08/09 13:45:09;;;;;;;3.15;1.27;;;;;;;;;;7369030;19;20026;-74
2023/08/09 13:47:36;;;;;;;3.78;1.45;;;;;;;;;;7373430;19;20353;-73
2023/08/09 13:50:02;;;;;;;4.15;1.60;;;;;;;;;;7370419;19;20003;-73
2023/08/09 13:52:27;;;;;;;2.03;1.42;;;;;;;;;;7371220;19;20082;-72
2023/08/09 13:54:53;;;;;;;5.72;1.70;;;;;;;;;;7390338;19;20003;-72
2023/08/09 13:57:18;;;;;;;4.78;1.73;;;;;;;;;;7372910;19;20003;-73
2023/08/09 13:59:44;;;;;;;6.38;1.50;;;;;;;;;;7373122;19;20012;-73
2023/08/09 14:02:09;;;;;;;9.07;1.80;;;;;;;;;;7372818;19;20029;-73
2023/08/09 14:04:35;;;;;;;9.48;1.70;;;;;;;;;;7372049;19;20033;-73
2023/08/09 14:07:02;;;;;;;4.35;1.60;;;;;;;;;;7395321;19;20488;-73
2023/08/09 14:09:28;;;;;;;4.55;1.52;;;;;;;;;;7373326;19;20010;-73
2023/08/09 14:11:53;;;;;;;4.22;1.70;;;;;;;;;;7372558;19;20035;-73
2023/08/09 14:14:19;;;;;;;1.70;1.40;;;;;;;;;;7371156;19;20092;-73
2023/08/09 14:16:44;;;;;;;6.57;1.90;;;;;;;;;;7373598;19;20006;-73
2023/08/09 14:19:09;;;;;;;6.35;1.90;;;;;;;;;;7369666;19;20085;-72
2023/08/09 14:21:35;;;;;;;6.22;1.83;;;;;;;;;;7391613;19;20006;-73
2023/08/09 14:24:00;;;;;;;9.30;2.30;;;;;;;;;;7368498;19;20010;-74
2023/08/09 14:26:26;;;;;;;15.80;2.92;;;;;;;;;;7370300;19;19998;-74
2023/08/09 14:28:51;;;;;;;7.18;2.08;;;;;;;;;;7372122;19;20002;-73
2023/08/09 14:31:17;;;;;;;8.07;1.80;;;;;;;;;;7370769;19;20027;-72
2023/08/09 14:33:42;;;;;;;3.17;1.58;;;;;;;;;;7391098;19;20002;-73
2023/08/09 14:36:07;;;;;;;2.42;1.50;;;;;;;;;;7373387;19;20062;-73
2023/08/09 14:38:33;;;;;;;1.30;1.20;;;;;;;;;;7374436;19;20075;-73